Terminal Aerodrome Forecast
Issued by NWS

Home | Current Version | Previous Version | Graphics & Text | Print | Product List | Glossary On
Versions: 1 2 3 4 5 6 7 8 9 10 11 12 13 14 15 16 17 18 19 20
000
FTUS43 KICT 221738
TAFHUT
TAF
KHUT 221738Z 2218/2318 35016G24KT P6SM SKC
     FM230000 33008KT P6SM SKC
     FM230500 32004KT P6SM SKC
     FM231600 17011KT P6SM FEW200=

USA.gov is the U.S. government's official web portal to all federal, state and local government web resources and services.